Billy Budd — VSPI7 — position and weather

sailwx.info

Track history (hours):
 
Tides and Currents Weather Stations Pressure Air Temp Water Temp Dewpoint Dewpoint Depression Visibility Wind Speed Wind Dir Waves Ship Positions

Billy Budd

Last reported at 2014-Oct-03 13:17 UTC. Time now 2014-Oct-26 01:59 UTC.
Position N 44°11' E 009°31'.
Warning: this ship's position is 22 days out of date.

Length 35 m.

Type: Sailing vessel. MMSI: 235003490.

Date/timePositionNaut miles runAvg speedWind from/ knotsBaromVisibWave heightAir tempDewpointWater temp
2014-Oct-03 13:17N 44°11' E 009°31'6 8.4
2014-Oct-03 12:33N 44°07' E 009°37'8 8.5
2014-Oct-03 11:33N 44°02' E 009°46'9 8.6
2014-Oct-03 10:33N 43°56' E 009°55'9 8.6
2014-Oct-03 09:33N 43°49' E 010°03'13 0.6
2014-Oct-02 12:31N 43°41' E 010°16'0 0.0
2014-Oct-02 11:28N 43°41' E 010°16'0 0.0
2014-Oct-02 10:31N 43°41' E 010°16'0 0.0
2014-Oct-02 09:32N 43°41' E 010°16'0 0.0
2014-Oct-02 08:33N 43°41' E 010°16'0 0.0
2014-Oct-02 07:32N 43°41' E 010°16'0 0.0
2014-Oct-02 06:31N 43°41' E 010°16'0 0.0
2014-Oct-02 05:32N 43°41' E 010°16'0 0.0
2014-Oct-02 04:33N 43°41' E 010°16'0 0.0
2014-Oct-01 22:17N 43°41' E 010°16'0 0.0
2014-Oct-01 21:32N 43°41' E 010°16'0 0.0
2014-Oct-01 20:32N 43°41' E 010°16'0 0.0
2014-Oct-01 19:32N 43°41' E 010°16'0 0.0
2014-Oct-01 18:32N 43°41' E 010°16'0 0.0
2014-Oct-01 17:32N 43°41' E 010°16'0 0.0
2014-Oct-01 16:32N 43°41' E 010°16'0 0.0
2014-Oct-01 15:32N 43°41' E 010°16'0 0.0
2014-Oct-01 14:32N 43°41' E 010°16'0 0.0
2014-Oct-01 13:32N 43°41' E 010°16'0 0.0
2014-Oct-01 12:32N 43°41' E 010°16'0 0.0
2014-Oct-01 11:29N 43°41' E 010°16'0 0.0
2014-Oct-01 10:26N 43°41' E 010°16'0 0.0
2014-Oct-01 09:32N 43°41' E 010°16'0 0.0
2014-Oct-01 08:32N 43°41' E 010°16'0 0.0
2014-Oct-01 07:32N 43°41' E 010°16'0 0.0
2014-Oct-01 06:33N 43°41' E 010°16'0 0.0
2014-Oct-01 05:33N 43°41' E 010°16'0 0.0
2014-Oct-01 04:33N 43°41' E 010°16'0 0.0
2014-Oct-01 03:31N 43°41' E 010°16'0 0.0
2014-Oct-01 02:31N 43°41' E 010°16'0 0.0
2014-Oct-01 01:31N 43°41' E 010°16'0 0.0
2014-Oct-01 00:31N 43°41' E 010°16'0 0.0
2014-Sep-30 23:31N 43°41' E 010°16'0 0.0
2014-Sep-30 22:31N 43°41' E 010°16'0 0.0
2014-Sep-30 21:31N 43°41' E 010°16'0 0.0
2014-Sep-30 20:31N 43°41' E 010°16'0 0.0
2014-Sep-30 19:31N 43°41' E 010°16'0 0.0
2014-Sep-30 18:31N 43°41' E 010°16'0 0.0
2014-Sep-30 17:31N 43°41' E 010°16'0 0.0
2014-Sep-30 16:31N 43°41' E 010°16'0 0.0
2014-Sep-30 15:31N 43°41' E 010°16'0 0.0
2014-Sep-30 14:31N 43°41' E 010°16'0 0.0
2014-Sep-30 13:31N 43°41' E 010°16'0 0.0
2014-Sep-30 12:31N 43°41' E 010°16'0 0.0
2014-Sep-30 11:31N 43°41' E 010°16'0 0.0
2014-Sep-30 10:31N 43°41' E 010°16'0 0.0
2014-Sep-30 09:31N 43°41' E 010°16'0 0.0
2014-Sep-30 08:31N 43°41' E 010°16'0 0.0
2014-Sep-30 07:31N 43°41' E 010°16'0 0.0
2014-Sep-30 06:03N 43°41' E 010°16'0 0.0
2014-Sep-30 05:32N 43°41' E 010°16'0 0.0
2014-Sep-30 04:32N 43°41' E 010°16'0 0.0
2014-Sep-30 03:32N 43°41' E 010°16'0 0.0
2014-Sep-30 02:32N 43°41' E 010°16'0 0.0
2014-Sep-29 22:18N 43°41' E 010°16'0 0.0
2014-Sep-29 21:34N 43°41' E 010°16'0 0.0
2014-Sep-29 20:17N 43°41' E 010°16'0 0.0
2014-Sep-29 19:31N 43°41' E 010°16'0 0.0
2014-Sep-29 18:31N 43°41' E 010°16'0 0.0
2014-Sep-29 17:28N 43°41' E 010°16'0 0.0
2014-Sep-29 16:31N 43°41' E 010°16'0 0.4
2014-Sep-29 15:33N 43°40' E 010°16'9 8.5
2014-Sep-29 14:33N 43°35' E 010°06'  
Track history (hours):
 
Tides and Currents Weather Stations Pressure Air Temp Water Temp Dewpoint Dewpoint Depression Visibility Wind Speed Wind Dir Waves Ship Positions

Billy Budd

Last reported at 2014-Oct-03 13:17 UTC. Time now 2014-Oct-26 01:59 UTC.
Position N 44°11' E 009°31'.
Warning: this ship's position is 22 days out of date.

Length 35 m.

Type: Sailing vessel. MMSI: 235003490.

Date/timePositionNaut miles runAvg speedWind from/ knotsBaromVisibWave heightAir tempDewpointWater temp
2014-Oct-03 13:17N 44°11' E 009°31'6 8.4
2014-Oct-03 12:33N 44°07' E 009°37'8 8.5
2014-Oct-03 11:33N 44°02' E 009°46'9 8.6
2014-Oct-03 10:33N 43°56' E 009°55'9 8.6
2014-Oct-03 09:33N 43°49' E 010°03'13 0.6
2014-Oct-02 12:31N 43°41' E 010°16'0 0.0
2014-Oct-02 11:28N 43°41' E 010°16'0 0.0
2014-Oct-02 10:31N 43°41' E 010°16'0 0.0
2014-Oct-02 09:32N 43°41' E 010°16'0 0.0
2014-Oct-02 08:33N 43°41' E 010°16'0 0.0
2014-Oct-02 07:32N 43°41' E 010°16'0 0.0
2014-Oct-02 06:31N 43°41' E 010°16'0 0.0
2014-Oct-02 05:32N 43°41' E 010°16'0 0.0
2014-Oct-02 04:33N 43°41' E 010°16'0 0.0
2014-Oct-01 22:17N 43°41' E 010°16'0 0.0
2014-Oct-01 21:32N 43°41' E 010°16'0 0.0
2014-Oct-01 20:32N 43°41' E 010°16'0 0.0
2014-Oct-01 19:32N 43°41' E 010°16'0 0.0
2014-Oct-01 18:32N 43°41' E 010°16'0 0.0
2014-Oct-01 17:32N 43°41' E 010°16'0 0.0
2014-Oct-01 16:32N 43°41' E 010°16'0 0.0
2014-Oct-01 15:32N 43°41' E 010°16'0 0.0
2014-Oct-01 14:32N 43°41' E 010°16'0 0.0
2014-Oct-01 13:32N 43°41' E 010°16'0 0.0
2014-Oct-01 12:32N 43°41' E 010°16'0 0.0
2014-Oct-01 11:29N 43°41' E 010°16'0 0.0
2014-Oct-01 10:26N 43°41' E 010°16'0 0.0
2014-Oct-01 09:32N 43°41' E 010°16'0 0.0
2014-Oct-01 08:32N 43°41' E 010°16'0 0.0
2014-Oct-01 07:32N 43°41' E 010°16'0 0.0
2014-Oct-01 06:33N 43°41' E 010°16'0 0.0
2014-Oct-01 05:33N 43°41' E 010°16'0 0.0
2014-Oct-01 04:33N 43°41' E 010°16'0 0.0
2014-Oct-01 03:31N 43°41' E 010°16'0 0.0
2014-Oct-01 02:31N 43°41' E 010°16'0 0.0
2014-Oct-01 01:31N 43°41' E 010°16'0 0.0
2014-Oct-01 00:31N 43°41' E 010°16'0 0.0
2014-Sep-30 23:31N 43°41' E 010°16'0 0.0
2014-Sep-30 22:31N 43°41' E 010°16'0 0.0
2014-Sep-30 21:31N 43°41' E 010°16'0 0.0
2014-Sep-30 20:31N 43°41' E 010°16'0 0.0
2014-Sep-30 19:31N 43°41' E 010°16'0 0.0
2014-Sep-30 18:31N 43°41' E 010°16'0 0.0
2014-Sep-30 17:31N 43°41' E 010°16'0 0.0
2014-Sep-30 16:31N 43°41' E 010°16'0 0.0
2014-Sep-30 15:31N 43°41' E 010°16'0 0.0
2014-Sep-30 14:31N 43°41' E 010°16'0 0.0
2014-Sep-30 13:31N 43°41' E 010°16'0 0.0
2014-Sep-30 12:31N 43°41' E 010°16'0 0.0
2014-Sep-30 11:31N 43°41' E 010°16'0 0.0
2014-Sep-30 10:31N 43°41' E 010°16'0 0.0
2014-Sep-30 09:31N 43°41' E 010°16'0 0.0
2014-Sep-30 08:31N 43°41' E 010°16'0 0.0
2014-Sep-30 07:31N 43°41' E 010°16'0 0.0
2014-Sep-30 06:03N 43°41' E 010°16'0 0.0
2014-Sep-30 05:32N 43°41' E 010°16'0 0.0
2014-Sep-30 04:32N 43°41' E 010°16'0 0.0
2014-Sep-30 03:32N 43°41' E 010°16'0 0.0
2014-Sep-30 02:32N 43°41' E 010°16'0 0.0
2014-Sep-29 22:18N 43°41' E 010°16'0 0.0
2014-Sep-29 21:34N 43°41' E 010°16'0 0.0
2014-Sep-29 20:17N 43°41' E 010°16'0 0.0
2014-Sep-29 19:31N 43°41' E 010°16'0 0.0
2014-Sep-29 18:31N 43°41' E 010°16'0 0.0
2014-Sep-29 17:28N 43°41' E 010°16'0 0.0
2014-Sep-29 16:31N 43°41' E 010°16'0 0.4
2014-Sep-29 15:33N 43°40' E 010°16'9 8.5
2014-Sep-29 14:33N 43°35' E 010°06'  

Dump ship's entire track history